Observation data for Northwest Lubbock on 10/18/2019      Previous  Date       Current Mesonet Observations  Soil Data  Daily Summary Page  Observations in Plain Language
KLBW 180500Z 16010G16KT 17/06 A2986 RMK A01 T01730059  RH  048%=      5-min Rain = 0
KLBW 180505Z 16012G17KT 17/06 A2986 RMK A01 T01730059  RH  048%=      5-min Rain = 0
KLBW 180510Z 16012G19KT 17/06 A2986 RMK A01 T01720058  RH  048%=      5-min Rain = 0
KLBW 180515Z 16012G17KT 17/06 A2986 RMK A01 T01720057  RH  048%=      5-min Rain = 0
KLBW 180520Z 16012G17KT 17/06 A2986 RMK A01 T01710056  RH  048%=      5-min Rain = 0
KLBW 180525Z 16010G15KT 17/06 A2986 RMK A01 T01690056  RH  048%=      5-min Rain = 0
KLBW 180530Z 16012G19KT 17/06 A2985 RMK A01 T01690055  RH  048%=      5-min Rain = 0
KLBW 180535Z 16011G19KT 17/06 A2986 RMK A01 T01700055  RH  048%=      5-min Rain = 0
KLBW 180540Z 16011G16KT 17/05 A2986 RMK A01 T01690054  RH  048%=      5-min Rain = 0
KLBW 180545Z 16011G17KT 17/05 A2986 RMK A01 T01690054  RH  048%=      5-min Rain = 0
KLBW 180550Z 16013KT 17/05 A2986 RMK A01 T01690054  RH  048%=      5-min Rain = 0
KLBW 180555Z 16013G18KT 17/06 A2986 RMK A01 T01700055  RH  048%=      5-min Rain = 0
KLBW 180600Z 16013G19KT 17/06 A2986 RMK A01 T01700055  RH  048%=      5-min Rain = 0
KLBW 180605Z 17011G18KT 17/06 A2986 RMK A01 T01700056  RH  048%=      5-min Rain = 0
KLBW 180610Z 17013G19KT 17/06 A2986 RMK A01 T01700058  RH  049%=      5-min Rain = 0
KLBW 180615Z 17011G17KT 17/06 A2986 RMK A01 T01690059  RH  049%=      5-min Rain = 0
KLBW 180620Z 17012G19KT 17/06 A2985 RMK A01 T01690060  RH  050%=      5-min Rain = 0
KLBW 180625Z 17013G18KT 17/06 A2985 RMK A01 T01690061  RH  050%=      5-min Rain = 0
KLBW 180630Z 17011G17KT 17/06 A2985 RMK A01 T01690062  RH  051%=      5-min Rain = 0
KLBW 180635Z 17012G19KT 17/06 A2985 RMK A01 T01670063  RH  051%=      5-min Rain = 0
KLBW 180640Z 17012G17KT 17/06 A2985 RMK A01 T01670064  RH  052%=      5-min Rain = 0
KLBW 180645Z 17011KT 17/06 A2985 RMK A01 T01650064  RH  052%=      5-min Rain = 0
KLBW 180650Z 17011G17KT 16/07 A2985 RMK A01 T01640065  RH  053%=      5-min Rain = 0
KLBW 180655Z 17012G18KT 16/07 A2985 RMK A01 T01630065  RH  054%=      5-min Rain = 0
KLBW 180700Z 17011G16KT 16/07 A2985 RMK A01 T01630066  RH  054%=      5-min Rain = 0
KLBW 180705Z 17010G15KT 16/07 A2985 RMK A01 T01620067  RH  055%=      5-min Rain = 0
KLBW 180710Z 17010KT 16/07 A2985 RMK A01 T01600067  RH  055%=      5-min Rain = 0
KLBW 180715Z 17011G16KT 16/07 A2985 RMK A01 T01600068  RH  056%=      5-min Rain = 0
KLBW 180720Z 17011G16KT 16/07 A2984 RMK A01 T01590068  RH  056%=      5-min Rain = 0
KLBW 180725Z 17011G16KT 16/07 A2984 RMK A01 T01580069  RH  057%=      5-min Rain = 0
KLBW 180730Z 18010KT 16/07 A2984 RMK A01 T01570069  RH  057%=      5-min Rain = 0
KLBW 180735Z 17010KT 16/07 A2984 RMK A01 T01570070  RH  058%=      5-min Rain = 0
KLBW 180740Z 17010G15KT 16/07 A2984 RMK A01 T01570071  RH  058%=      5-min Rain = 0
KLBW 180745Z 17009KT 16/07 A2984 RMK A01 T01550071  RH  059%=      5-min Rain = 0
KLBW 180750Z 17010KT 15/07 A2984 RMK A01 T01540072  RH  059%=      5-min Rain = 0
KLBW 180755Z 17009KT 15/07 A2984 RMK A01 T01540072  RH  060%=      5-min Rain = 0
KLBW 180800Z 17010G15KT 15/07 A2984 RMK A01 T01530072  RH  060%=      5-min Rain = 0
KLBW 180805Z 17009G14KT 15/07 A2983 RMK A01 T01520072  RH  060%=      5-min Rain = 0
KLBW 180810Z 17011KT 15/07 A2983 RMK A01 T01520073  RH  061%=      5-min Rain = 0
KLBW 180815Z 18010KT 15/07 A2983 RMK A01 T01520073  RH  061%=      5-min Rain = 0
KLBW 180820Z 17009KT 15/07 A2983 RMK A01 T01500072  RH  061%=      5-min Rain = 0
KLBW 180825Z 17009G14KT 15/07 A2983 RMK A01 T01490072  RH  061%=      5-min Rain = 0
KLBW 180830Z 17008KT 15/07 A2983 RMK A01 T01480071  RH  062%=      5-min Rain = 0
KLBW 180835Z 17009KT 15/07 A2983 RMK A01 T01470071  RH  062%=      5-min Rain = 0
KLBW 180840Z 18008G14KT 15/07 A2983 RMK A01 T01460071  RH  062%=      5-min Rain = 0
KLBW 180845Z 18009KT 15/07 A2983 RMK A01 T01450072  RH  063%=      5-min Rain = 0
KLBW 180850Z 18009G14KT 15/07 A2983 RMK A01 T01450073  RH  063%=      5-min Rain = 0
KLBW 180855Z 18009KT 15/07 A2983 RMK A01 T01450072  RH  063%=      5-min Rain = 0
KLBW 180900Z 18010KT 14/07 A2983 RMK A01 T01430072  RH  064%=      5-min Rain = 0
KLBW 180905Z 17010KT 14/07 A2982 RMK A01 T01430072  RH  064%=      5-min Rain = 0
KLBW 180910Z 17010KT 14/07 A2982 RMK A01 T01420073  RH  065%=      5-min Rain = 0
KLBW 180915Z 17009KT 14/07 A2982 RMK A01 T01420074  RH  065%=      5-min Rain = 0
KLBW 180920Z 17009G15KT 14/08 A2982 RMK A01 T01410075  RH  066%=      5-min Rain = 0
KLBW 180925Z 19008KT 14/08 A2982 RMK A01 T01400075  RH  067%=      5-min Rain = 0
KLBW 180930Z 19008KT 14/08 A2982 RMK A01 T01380075  RH  067%=      5-min Rain = 0
KLBW 180935Z 19009KT 14/08 A2982 RMK A01 T01380077  RH  068%=      5-min Rain = 0
KLBW 180940Z 19009KT 14/08 A2982 RMK A01 T01380078  RH  069%=      5-min Rain = 0
KLBW 180945Z 19009KT 14/08 A2981 RMK A01 T01370079  RH  070%=      5-min Rain = 0
KLBW 180950Z 18009G14KT 14/08 A2981 RMK A01 T01370079  RH  070%=      5-min Rain = 0
KLBW 180955Z 18010G15KT 14/08 A2981 RMK A01 T01370080  RH  071%=      5-min Rain = 0
KLBW 181000Z 19010KT 14/08 A2981 RMK A01 T01360081  RH  071%=      5-min Rain = 0
KLBW 181005Z 19011G16KT 14/08 A2981 RMK A01 T01360082  RH  072%=      5-min Rain = 0
KLBW 181010Z 18010KT 13/08 A2981 RMK A01 T01340082  RH  073%=      5-min Rain = 0
KLBW 181015Z 18011KT 14/08 A2981 RMK A01 T01350083  RH  073%=      5-min Rain = 0
KLBW 181020Z 18011KT 14/08 A2981 RMK A01 T01350084  RH  074%=      5-min Rain = 0
KLBW 181025Z 18011G16KT 14/09 A2981 RMK A01 T01350085  RH  074%=      5-min Rain = 0
KLBW 181030Z 19011G16KT 14/09 A2981 RMK A01 T01350086  RH  075%=      5-min Rain = 0
KLBW 181035Z 19011G18KT 14/09 A2981 RMK A01 T01350087  RH  075%=      5-min Rain = 0
KLBW 181040Z 19012G18KT 13/09 A2981 RMK A01 T01340088  RH  076%=      5-min Rain = 0
KLBW 181045Z 19011G16KT 14/09 A2981 RMK A01 T01350089  RH  076%=      5-min Rain = 0
KLBW 181050Z 19011G18KT 14/09 A2981 RMK A01 T01350089  RH  076%=      5-min Rain = 0
KLBW 181055Z 19011G17KT 13/09 A2981 RMK A01 T01340090  RH  077%=      5-min Rain = 0
KLBW 181100Z 19011G16KT 14/09 A2981 RMK A01 T01350091  RH  077%=      5-min Rain = 0
KLBW 181105Z 19012G17KT 14/09 A2981 RMK A01 T01350092  RH  077%=      5-min Rain = 0
KLBW 181110Z 19011KT 14/09 A2981 RMK A01 T01350092  RH  077%=      5-min Rain = 0
KLBW 181115Z 19011G16KT 14/09 A2981 RMK A01 T01350092  RH  078%=      5-min Rain = 0
KLBW 181120Z 19010G15KT 13/09 A2981 RMK A01 T01340092  RH  078%=      5-min Rain = 0
KLBW 181125Z 19010G15KT 13/09 A298 RMK A01 T01340093  RH  079%=      5-min Rain = 0
KLBW 181130Z 19010G15KT 13/09 A298 RMK A01 T01330093  RH  079%=      5-min Rain = 0
KLBW 181135Z 19010KT 13/09 A298 RMK A01 T01330093  RH  079%=      5-min Rain = 0
KLBW 181140Z 19010G16KT 13/09 A298 RMK A01 T01330094  RH  080%=      5-min Rain = 0
KLBW 181145Z 19012KT 13/10 A298 RMK A01 T01340095  RH  080%=      5-min Rain = 0
KLBW 181150Z 20013G19KT 14/10 A298 RMK A01 T01360096  RH  079%=      5-min Rain = 0
KLBW 181155Z 19012KT 14/10 A298 RMK A01 T01360095  RH  079%=      5-min Rain = 0
KLBW 181200Z 20010G16KT 13/10 A298 RMK A01 T01340095  RH  080%=      5-min Rain = 0
KLBW 181205Z 19012G18KT 13/10 A298 RMK A01 T01340096  RH  080%=      5-min Rain = 0
KLBW 181210Z 19012G17KT 14/10 A298 RMK A01 T01360096  RH  079%=      5-min Rain = 0
KLBW 181215Z 19012G17KT 14/10 A298 RMK A01 T01360096  RH  079%=      5-min Rain = 0
KLBW 181220Z 19011G16KT 14/10 A298 RMK A01 T01360095  RH  079%=      5-min Rain = 0
KLBW 181225Z 19012KT 14/10 A298 RMK A01 T01360095  RH  079%=      5-min Rain = 0
KLBW 181230Z 19011KT 14/10 A298 RMK A01 T01360095  RH  079%=      5-min Rain = 0
KLBW 181235Z 19012G18KT 14/10 A298 RMK A01 T01350095  RH  079%=      5-min Rain = 0
KLBW 181240Z 19012G17KT 14/10 A298 RMK A01 T01360095  RH  079%=      5-min Rain = 0
KLBW 181245Z 19011G16KT 14/09 A298 RMK A01 T01350094  RH  079%=      5-min Rain = 0
KLBW 181250Z 19012KT 14/09 A298 RMK A01 T01350094  RH  079%=      5-min Rain = 0
KLBW 181255Z 19011G16KT 14/09 A298 RMK A01 T01350094  RH  079%=      5-min Rain = 0
KLBW 181300Z 19010KT 13/09 A298 RMK A01 T01340094  RH  079%=      5-min Rain = 0
KLBW 181305Z 19010KT 13/09 A298 RMK A01 T01340093  RH  079%=      5-min Rain = 0
KLBW 181310Z 19010KT 13/09 A298 RMK A01 T01340093  RH  079%=      5-min Rain = 0
KLBW 181315Z 19010KT 13/09 A298 RMK A01 T01340094  RH  079%=      5-min Rain = 0
KLBW 181320Z 19011KT 14/09 A298 RMK A01 T01370094  RH  078%=      5-min Rain = 0
KLBW 181325Z 18011G16KT 14/09 A298 RMK A01 T01380093  RH  077%=      5-min Rain = 0
KLBW 181330Z 18011G18KT 14/09 A298 RMK A01 T01390093  RH  076%=      5-min Rain = 0
KLBW 181335Z 18011G16KT 14/09 A298 RMK A01 T01390093  RH  076%=      5-min Rain = 0
KLBW 181340Z 19011G16KT 14/09 A298 RMK A01 T01400092  RH  075%=      5-min Rain = 0
KLBW 181345Z 19010G15KT 14/09 A298 RMK A01 T01420092  RH  075%=      5-min Rain = 0
KLBW 181350Z 19010G16KT 14/09 A298 RMK A01 T01430092  RH  074%=      5-min Rain = 0
KLBW 181355Z 18010G16KT 15/09 A298 RMK A01 T01450092  RH  073%=      5-min Rain = 0
KLBW 181400Z 19011G16KT 15/09 A298 RMK A01 T01460092  RH  072%=      5-min Rain = 0
KLBW 181405Z 19013KT 15/09 A298 RMK A01 T01480092  RH  071%=      5-min Rain = 0
KLBW 181410Z 18012G17KT 15/09 A298 RMK A01 T01490092  RH  071%=      5-min Rain = 0
KLBW 181415Z 19010G16KT 15/09 A298 RMK A01 T01530093  RH  069%=      5-min Rain = 0
KLBW 181420Z 18011G16KT 16/09 A298 RMK A01 T01550092  RH  068%=      5-min Rain = 0
KLBW 181425Z 18010KT 16/09 A298 RMK A01 T01580093  RH  068%=      5-min Rain = 0
KLBW 181430Z 19012KT 16/09 A298 RMK A01 T01610093  RH  066%=      5-min Rain = 0
KLBW 181435Z 19011G16KT 16/09 A2981 RMK A01 T01620093  RH  065%=      5-min Rain = 0
KLBW 181440Z 18012G17KT 17/09 A298 RMK A01 T01650092  RH  064%=      5-min Rain = 0
KLBW 181445Z 19011G16KT 17/09 A298 RMK A01 T01660092  RH  063%=      5-min Rain = 0
KLBW 181450Z 18011G17KT 17/09 A298 RMK A01 T01690093  RH  062%=      5-min Rain = 0
KLBW 181455Z 19012G18KT 17/09 A298 RMK A01 T01700092  RH  062%=      5-min Rain = 0
KLBW 181500Z 19013KT 18/09 A298 RMK A01 T01760093  RH  060%=      5-min Rain = 0
KLBW 181505Z 18012G18KT 18/09 A298 RMK A01 T01790093  RH  059%=      5-min Rain = 0
KLBW 181510Z 18012G17KT 19/09 A298 RMK A01 T01860094  RH  057%=      5-min Rain = 0
KLBW 181515Z 19012G18KT 18/09 A2979 RMK A01 T01840091  RH  056%=      5-min Rain = 0
KLBW 181520Z 18010G17KT 18/09 A2979 RMK A01 T01810091  RH  057%=      5-min Rain = 0
KLBW 181525Z 18009KT 18/09 A2979 RMK A01 T01800091  RH  058%=      5-min Rain = 0
KLBW 181530Z 18010G15KT 19/09 A2979 RMK A01 T01910094  RH  055%=      5-min Rain = 0
KLBW 181535Z 19012KT 20/09 A2979 RMK A01 T01960092  RH  053%=      5-min Rain = 0
KLBW 181540Z 20010KT 20/09 A2979 RMK A01 T02000093  RH  052%=      5-min Rain = 0
KLBW 181545Z 19009KT 20/09 A2979 RMK A01 T02000092  RH  051%=      5-min Rain = 0
KLBW 181550Z 19009KT 20/09 A2979 RMK A01 T02010094  RH  052%=      5-min Rain = 0
KLBW 181555Z 19011KT 21/09 A2979 RMK A01 T02100093  RH  049%=      5-min Rain = 0
KLBW 181600Z 19010KT 21/09 A2978 RMK A01 T02090093  RH  049%=      5-min Rain = 0
KLBW 181605Z 19010G15KT 21/09 A2978 RMK A01 T02140094  RH  048%=      5-min Rain = 0
KLBW 181610Z 20010G16KT 21/09 A2978 RMK A01 T02070092  RH  049%=      5-min Rain = 0
KLBW 181615Z 22011KT 21/09 A2978 RMK A01 T02070093  RH  050%=      5-min Rain = 0
KLBW 181620Z 22009G15KT 21/10 A2979 RMK A01 T02140095  RH  048%=      5-min Rain = 0
KLBW 181625Z 22009G14KT 22/10 A2979 RMK A01 T02180096  RH  047%=      5-min Rain = 0
KLBW 181630Z 20009G14KT 23/10 A2978 RMK A01 T02260097  RH  045%=      5-min Rain = 0
KLBW 181635Z 22010G15KT 23/10 A2978 RMK A01 T02300098  RH  045%=      5-min Rain = 0
KLBW 181640Z 21009KT 23/10 A2978 RMK A01 T02330099  RH  044%=      5-min Rain = 0
KLBW 181645Z 21010KT 24/10 A2978 RMK A01 T02370098  RH  043%=      5-min Rain = 0
KLBW 181650Z 21009KT 24/10 A2978 RMK A01 T02370098  RH  043%=      5-min Rain = 0
KLBW 181655Z 21009G14KT 24/10 A2977 RMK A01 T02410100  RH  042%=      5-min Rain = 0
KLBW 181700Z 21011KT 25/10 A2977 RMK A01 T02460100  RH  041%=      5-min Rain = 0
KLBW 181705Z 21009KT 25/10 A2977 RMK A01 T02480101  RH  041%=      5-min Rain = 0
KLBW 181710Z 20012KT 25/10 A2977 RMK A01 T02490100  RH  040%=      5-min Rain = 0
KLBW 181715Z 20012KT 25/10 A2977 RMK A01 T02480100  RH  040%=      5-min Rain = 0
KLBW 181720Z 20011G16KT 25/10 A2976 RMK A01 T02500101  RH  040%=      5-min Rain = 0
KLBW 181725Z 21012G17KT 25/10 A2976 RMK A01 T02500101  RH  040%=      5-min Rain = 0
KLBW 181730Z 20011G16KT 25/10 A2976 RMK A01 T02530101  RH  040%=      5-min Rain = 0
KLBW 181735Z 21010KT 26/10 A2976 RMK A01 T02550102  RH  039%=      5-min Rain = 0
KLBW 181740Z 23012G18KT 26/10 A2976 RMK A01 T02610103  RH  038%=      5-min Rain = 0
KLBW 181745Z 22009G14KT 27/10 A2975 RMK A01 T02650104  RH  038%=      5-min Rain = 0
KLBW 181750Z 23013G18KT 27/10 A2975 RMK A01 T02650104  RH  038%=      5-min Rain = 0
KLBW 181755Z 21012G17KT 27/10 A2975 RMK A01 T02650103  RH  037%=      5-min Rain = 0
KLBW 181800Z 22012G18KT 27/11 A2974 RMK A01 T02710105  RH  037%=      5-min Rain = 0
KLBW 181805Z 21011G16KT 27/11 A2974 RMK A01 T02730105  RH  036%=      5-min Rain = 0
KLBW 181810Z 20013G19KT 27/10 A2973 RMK A01 T02730104  RH  036%=      5-min Rain = 0
KLBW 181815Z 21011G17KT 28/11 A2973 RMK A01 T02770106  RH  036%=      5-min Rain = 0
KLBW 181820Z 20014G20KT 28/11 A2973 RMK A01 T02800105  RH  035%=      5-min Rain = 0
KLBW 181825Z 21013G18KT 28/11 A2972 RMK A01 T02820106  RH  035%=      5-min Rain = 0
KLBW 181830Z 21010KT 28/11 A2972 RMK A01 T02840107  RH  034%=      5-min Rain = 0
KLBW 181835Z 20012G22KT 29/11 A2971 RMK A01 T02890106  RH  033%=      5-min Rain = 0
KLBW 181840Z 23011G16KT 29/11 A2971 RMK A01 T02900105  RH  033%=      5-min Rain = 0
KLBW 181845Z 22013G20KT 30/10 A297 RMK A01 T02960103  RH  031%=      5-min Rain = 0
KLBW 181850Z 22016G23KT 30/09 A297 RMK A01 T02950092  RH  029%=      5-min Rain = 0
KLBW 181855Z 22016G21KT 30/09 A297 RMK A01 T02970087  RH  028%=      5-min Rain = 0
KLBW 181900Z 22014G21KT 30/09 A297 RMK A01 T02990089  RH  028%=      5-min Rain = 0
KLBW 181905Z 22017G22KT 30/08 A2969 RMK A01 T02980083  RH  027%=      5-min Rain = 0
KLBW 181910Z 23011G17KT 30/09 A2969 RMK A01 T03010087  RH  027%=      5-min Rain = 0
KLBW 181915Z 22016G23KT 30/08 A2969 RMK A01 T03020079  RH  026%=      5-min Rain = 0
KLBW 181920Z 23016G23KT 30/07 A2969 RMK A01 T03000072  RH  024%=      5-min Rain = 0
KLBW 181925Z 23015G24KT 30/08 A2968 RMK A01 T02980081  RH  026%=      5-min Rain = 0
KLBW 181930Z 23016G21KT 30/08 A2968 RMK A01 T02990082  RH  026%=      5-min Rain = 0
KLBW 181935Z 22012G19KT 30/08 A2968 RMK A01 T02990084  RH  027%=      5-min Rain = 0
KLBW 181940Z 22011G17KT 31/09 A2967 RMK A01 T03050088  RH  027%=      5-min Rain = 0
KLBW 181945Z 22016G24KT 30/08 A2967 RMK A01 T03020077  RH  025%=      5-min Rain = 0
KLBW 181950Z 23016G25KT 30/07 A2967 RMK A01 T02980066  RH  024%=      5-min Rain = 0
KLBW 181955Z 23015G24KT 30/06 A2966 RMK A01 T03010061  RH  023%=      5-min Rain = 0
KLBW 182000Z 22013G23KT 30/06 A2966 RMK A01 T03030061  RH  022%=      5-min Rain = 0
KLBW 182005Z 21015G23KT 31/05 A2966 RMK A01 T03070048  RH  020%=      5-min Rain = 0
KLBW 182010Z 22012G19KT 31/05 A2966 RMK A01 T03080049  RH  020%=      5-min Rain = 0
KLBW 182015Z 22014G21KT 31/04 A2966 RMK A01 T03070042  RH  019%=      5-min Rain = 0
KLBW 182020Z 22015G23KT 31/04 A2966 RMK A01 T03070036  RH  018%=      5-min Rain = 0
KLBW 182025Z 23017G23KT 31/03 A2966 RMK A01 T03050027  RH  017%=      5-min Rain = 0
KLBW 182030Z 23017G24KT 30/04 A2965 RMK A01 T03030037  RH  019%=      5-min Rain = 0
KLBW 182035Z 24014G21KT 30/04 A2965 RMK A01 T03030044  RH  020%=      5-min Rain = 0
KLBW 182040Z 22014G23KT 31/04 A2965 RMK A01 T03090041  RH  019%=      5-min Rain = 0
KLBW 182045Z 23017G22KT 30/04 A2965 RMK A01 T03030044  RH  020%=      5-min Rain = 0
KLBW 182050Z 23015G22KT 30/05 A2965 RMK A01 T03010046  RH  020%=      5-min Rain = 0
KLBW 182055Z 22014G20KT 30/04 A2965 RMK A01 T03030043  RH  020%=      5-min Rain = 0
KLBW 182100Z 23014G21KT 30/04 A2965 RMK A01 T03040044  RH  020%=      5-min Rain = 0
KLBW 182105Z 23014G22KT 30/04 A2965 RMK A01 T03020044  RH  020%=      5-min Rain = 0
KLBW 182110Z 23014G22KT 30/05 A2965 RMK A01 T02980047  RH  021%=      5-min Rain = 0
KLBW 182115Z 23013G23KT 30/06 A2965 RMK A01 T03030055  RH  021%=      5-min Rain = 0
KLBW 182120Z 24015G24KT 29/06 A2965 RMK A01 T02910059  RH  024%=      5-min Rain = 0
KLBW 182125Z 24011G16KT 29/06 A2965 RMK A01 T02910062  RH  024%=      5-min Rain = 0
KLBW 182130Z 21015G21KT 30/06 A2965 RMK A01 T02990059  RH  023%=      5-min Rain = 0
KLBW 182135Z 23014G23KT 30/06 A2965 RMK A01 T02980063  RH  023%=      5-min Rain = 0
KLBW 182140Z 24013G18KT 30/06 A2965 RMK A01 T02980063  RH  023%=      5-min Rain = 0
KLBW 182145Z 21015G22KT 30/07 A2965 RMK A01 T02950065  RH  024%=      5-min Rain = 0
KLBW 182150Z 22011G17KT 29/07 A2965 RMK A01 T02920066  RH  025%=      5-min Rain = 0
KLBW 182155Z 23011G16KT 30/06 A2965 RMK A01 T03000064  RH  023%=      5-min Rain = 0
KLBW 182200Z 24015G21KT 30/06 A2964 RMK A01 T02970057  RH  022%=      5-min Rain = 0
KLBW 182205Z 23013G23KT 29/06 A2965 RMK A01 T02940057  RH  023%=      5-min Rain = 0
KLBW 182210Z 21015G22KT 29/05 A2965 RMK A01 T02930054  RH  022%=      5-min Rain = 0
KLBW 182215Z 23013G19KT 29/06 A2965 RMK A01 T02850055  RH  024%=      5-min Rain = 0
KLBW 182220Z 24013G20KT 29/05 A2965 RMK A01 T02880054  RH  023%=      5-min Rain = 0
KLBW 182225Z 24015G20KT 28/05 A2965 RMK A01 T02820054  RH  024%=      5-min Rain = 0
KLBW 182230Z 23013G19KT 29/05 A2965 RMK A01 T02860053  RH  023%=      5-min Rain = 0
KLBW 182235Z 25014G20KT 29/05 A2965 RMK A01 T02920052  RH  022%=      5-min Rain = 0
KLBW 182240Z 25012G17KT 29/05 A2965 RMK A01 T02890053  RH  023%=      5-min Rain = 0
KLBW 182245Z 24010G16KT 28/05 A2965 RMK A01 T02820054  RH  024%=      5-min Rain = 0
KLBW 182250Z 23010G15KT 29/05 A2965 RMK A01 T02850052  RH  023%=      5-min Rain = 0
KLBW 182255Z 23011G17KT 28/05 A2965 RMK A01 T02830051  RH  023%=      5-min Rain = 0
KLBW 182300Z 24011G17KT 28/05 A2965 RMK A01 T02780050  RH  024%=      5-min Rain = 0
KLBW 182305Z 25009G14KT 28/05 A2965 RMK A01 T02830051  RH  023%=      5-min Rain = 0
KLBW 182310Z 25008G17KT 28/05 A2965 RMK A01 T02780052  RH  024%=      5-min Rain = 0
KLBW 182315Z 24008G13KT 28/05 A2965 RMK A01 T02760052  RH  024%=      5-min Rain = 0
KLBW 182320Z 24010G15KT 28/05 A2965 RMK A01 T02750047  RH  024%=      5-min Rain = 0
KLBW 182325Z 23009KT 28/05 A2965 RMK A01 T02750046  RH  024%=      5-min Rain = 0
KLBW 182330Z 23009G16KT 28/05 A2965 RMK A01 T02760047  RH  024%=      5-min Rain = 0
KLBW 182335Z 23009KT 28/05 A2965 RMK A01 T02780047  RH  023%=      5-min Rain = 0
KLBW 182340Z 22008KT 28/05 A2965 RMK A01 T02750047  RH  024%=      5-min Rain = 0
KLBW 182345Z 22007KT 27/05 A2965 RMK A01 T02720049  RH  025%=      5-min Rain = 0
KLBW 182350Z 25007KT 27/05 A2965 RMK A01 T02730050  RH  025%=      5-min Rain = 0
KLBW 182355Z 26007KT 27/05 A2965 RMK A01 T02690049  RH  025%=      5-min Rain = 0
KLBW 190000Z 26009G15KT 27/05 A2966 RMK A01 T02650046  RH  025%=      5-min Rain = 0
KLBW 190005Z 26011G16KT 27/03 A2966 RMK A01 T02670026  RH  021%=      5-min Rain = 0
KLBW 190010Z 26011KT 26/02 A2966 RMK A01 T02640018  RH  020%=      5-min Rain = 0
KLBW 190015Z 26008KT 26/02 A2966 RMK A01 T02600017  RH  021%=      5-min Rain = 0
KLBW 190020Z 25008G13KT 26/02 A2966 RMK A01 T02580018  RH  021%=      5-min Rain = 0
KLBW 190025Z 26010KT 26/02 A2966 RMK A01 T02580018  RH  021%=      5-min Rain = 0
KLBW 190030Z 26009KT 26/02 A2966 RMK A01 T02570018  RH  021%=      5-min Rain = 0
KLBW 190035Z 26008KT 25/02 A2966 RMK A01 T02530020  RH  022%=      5-min Rain = 0
KLBW 190040Z 26008KT 25/02 A2966 RMK A01 T02490021  RH  023%=      5-min Rain = 0
KLBW 190045Z 26008KT 25/02 A2967 RMK A01 T02460022  RH  023%=      5-min Rain = 0
KLBW 190050Z 25008KT 24/02 A2967 RMK A01 T02430024  RH  024%=      5-min Rain = 0
KLBW 190055Z 25007KT 24/03 A2967 RMK A01 T02400025  RH  025%=      5-min Rain = 0
KLBW 190100Z 25008KT 24/03 A2968 RMK A01 T02380027  RH  026%=      5-min Rain = 0
KLBW 190105Z 27018G28KT 25/02 A297 RMK A01 T02450024  RH  024%=      5-min Rain = 0
KLBW 190110Z 28017G26KT 24/03 A2971 RMK A01 T02390032  RH  026%=      5-min Rain = 0
KLBW 190115Z 29014G21KT 23/04 A2972 RMK A01 T02300042  RH  030%=      5-min Rain = 0
KLBW 190120Z 28014KT 23/05 A2972 RMK A01 T02260045  RH  031%=      5-min Rain = 0
KLBW 190125Z 28010G15KT 22/05 A2973 RMK A01 T02230046  RH  032%=      5-min Rain = 0
KLBW 190130Z 29010G15KT 22/05 A2973 RMK A01 T02210047  RH  033%=      5-min Rain = 0
KLBW 190135Z 28010KT 22/05 A2973 RMK A01 T02190048  RH  034%=      5-min Rain = 0
KLBW 190140Z 27008KT 22/05 A2974 RMK A01 T02150048  RH  034%=      5-min Rain = 0
KLBW 190145Z 24008KT 21/05 A2974 RMK A01 T02130049  RH  035%=      5-min Rain = 0
KLBW 190150Z 25008KT 21/05 A2975 RMK A01 T02130048  RH  035%=      5-min Rain = 0
KLBW 190155Z 24008KT 21/05 A2975 RMK A01 T02130048  RH  035%=      5-min Rain = 0
KLBW 190200Z 24008KT 21/05 A2975 RMK A01 T02130046  RH  034%=      5-min Rain = 0
KLBW 190205Z 24007KT 21/05 A2975 RMK A01 T02120046  RH  035%=      5-min Rain = 0
KLBW 190210Z 25007KT 21/05 A2975 RMK A01 T02100046  RH  035%=      5-min Rain = 0
KLBW 190215Z 25007KT 21/05 A2975 RMK A01 T02070046  RH  035%=      5-min Rain = 0
KLBW 190220Z 26010KT 21/05 A2975 RMK A01 T02070046  RH  035%=      5-min Rain = 0
KLBW 190225Z 26008KT 21/05 A2975 RMK A01 T02070047  RH  036%=      5-min Rain = 0
KLBW 190230Z 27007KT 20/05 A2975 RMK A01 T02040047  RH  036%=      5-min Rain = 0
KLBW 190235Z 27006KT 20/05 A2975 RMK A01 T02010047  RH  037%=      5-min Rain = 0
KLBW 190240Z 26006KT 20/05 A2974 RMK A01 T01980047  RH  038%=      5-min Rain = 0
KLBW 190245Z 26005KT 19/05 A2974 RMK A01 T01930047  RH  039%=      5-min Rain = 0
KLBW 190250Z 26005KT 19/05 A2975 RMK A01 T01900047  RH  040%=      5-min Rain = 0
KLBW 190255Z 27005KT 19/05 A2975 RMK A01 T01860047  RH  041%=      5-min Rain = 0
KLBW 190300Z 27005KT 18/05 A2975 RMK A01 T01840047  RH  041%=      5-min Rain = 0
KLBW 190305Z 26005KT 18/05 A2975 RMK A01 T01820047  RH  042%=      5-min Rain = 0
KLBW 190310Z 25006KT 18/05 A2975 RMK A01 T01800048  RH  043%=      5-min Rain = 0
KLBW 190315Z 25005KT 18/05 A2974 RMK A01 T01810048  RH  043%=      5-min Rain = 0
KLBW 190320Z 25005KT 18/05 A2974 RMK A01 T01820048  RH  042%=      5-min Rain = 0
KLBW 190325Z 25005KT 18/05 A2974 RMK A01 T01800047  RH  042%=      5-min Rain = 0
KLBW 190330Z 25006KT 18/05 A2975 RMK A01 T01780046  RH  042%=      5-min Rain = 0
KLBW 190335Z 26006KT 18/05 A2975 RMK A01 T01760046  RH  043%=      5-min Rain = 0
KLBW 190340Z 26005KT 18/05 A2975 RMK A01 T01760045  RH  043%=      5-min Rain = 0
KLBW 190345Z 26005KT 18/04 A2975 RMK A01 T01750044  RH  043%=      5-min Rain = 0
KLBW 190350Z 26007KT 17/04 A2975 RMK A01 T01740044  RH  043%=      5-min Rain = 0
KLBW 190355Z 25007KT 18/05 A2976 RMK A01 T01750045  RH  043%=      5-min Rain = 0
KLBW 190400Z 25007KT 18/05 A2976 RMK A01 T01790045  RH  042%=      5-min Rain = 0
KLBW 190405Z 25008KT 18/04 A2976 RMK A01 T01800044  RH  041%=      5-min Rain = 0
KLBW 190410Z 25008KT 18/04 A2976 RMK A01 T01820044  RH  041%=      5-min Rain = 0
KLBW 190415Z 25007KT 18/04 A2976 RMK A01 T01810044  RH  041%=      5-min Rain = 0
KLBW 190420Z 25008KT 18/04 A2976 RMK A01 T01800044  RH  041%=      5-min Rain = 0
KLBW 190425Z 26008KT 18/05 A2976 RMK A01 T01780045  RH  042%=      5-min Rain = 0
KLBW 190430Z 25008G13KT 18/05 A2976 RMK A01 T01770045  RH  042%=      5-min Rain = 0
KLBW 190435Z 25009KT 18/05 A2976 RMK A01 T01760045  RH  043%=      5-min Rain = 0
KLBW 190440Z 25008G15KT 17/05 A2976 RMK A01 T01740045  RH  043%=      5-min Rain = 0
KLBW 190445Z 26008KT 17/05 A2976 RMK A01 T01720045  RH  044%=      5-min Rain = 0
KLBW 190450Z 26008KT 17/05 A2976 RMK A01 T01700045  RH  044%=      5-min Rain = 0
KLBW 190455Z 26008KT 17/05 A2976 RMK A01 T01690045  RH  045%=      5-min Rain = 0

Page generated in 0.0361 seconds.